Eliye Springs Airport


Codes: HKES/EYS
Name: Eliye Springs Airport
City: Eliye Springs
Country: Kenya
Elevation: 1395 ft.

Photos at Eliye Springs Airport


   Photos courtesy of SpottingLog. You can add your own sightings and photos by signing up for a free trial today.



No photos found.

Weather at Eliye Springs Airport


Time (UTC)DescriptionTempratureWindCloud coverageVisibilityPressureHumidity
16-Jun-2024 03:00Broken Clouds27°C18 mph, E61%10000m1010hPa53%
16-Jun-2024 06:00Broken Clouds28°C16 mph, E59%10000m1011hPa46%
16-Jun-2024 09:00Few Clouds32°C13 mph, SE12%10000m1010hPa35%
16-Jun-2024 12:00Few Clouds33°C7 mph, E12%10000m1007hPa30%
16-Jun-2024 15:00Few Clouds33°C9 mph, E11%10000m1007hPa29%
16-Jun-2024 18:00Scattered Clouds31°C7 mph, NE27%10000m1009hPa34%
16-Jun-2024 21:00Broken Clouds29°C18 mph, E58%10000m1009hPa42%
17-Jun-2024 00:00Broken Clouds28°C18 mph, E75%10000m1009hPa49%
17-Jun-2024 03:00Overcast Clouds26°C13 mph, E96%10000m1012hPa63%
17-Jun-2024 06:00Overcast Clouds28°C20 mph, E98%10000m1014hPa52%
17-Jun-2024 09:00Broken Clouds31°C9 mph, E68%10000m1012hPa39%
17-Jun-2024 12:00Scattered Clouds33°C4 mph, E43%10000m1009hPa32%
17-Jun-2024 15:00Clear Sky34°C4 mph, SE7%10000m1007hPa28%
17-Jun-2024 18:00Few Clouds31°C4 mph, NE14%10000m1009hPa34%
17-Jun-2024 21:00Scattered Clouds30°C13 mph, E41%10000m1010hPa43%
18-Jun-2024 00:00Broken Clouds28°C22 mph, E68%10000m1009hPa44%
18-Jun-2024 03:00Broken Clouds26°C20 mph, E67%10000m1011hPa52%
18-Jun-2024 06:00Broken Clouds28°C20 mph, E81%10000m1013hPa47%
18-Jun-2024 09:00Broken Clouds31°C11 mph, SE66%10000m1012hPa38%
18-Jun-2024 12:00Broken Clouds33°C7 mph, E72%10000m1009hPa33%
18-Jun-2024 15:00Overcast Clouds33°C7 mph, E100%10000m1008hPa33%
18-Jun-2024 18:00Overcast Clouds31°C7 mph, E98%10000m1010hPa38%
18-Jun-2024 21:00Overcast Clouds30°C11 mph, E90%10000m1010hPa42%
19-Jun-2024 00:00Broken Clouds28°C25 mph, E69%10000m1009hPa48%
19-Jun-2024 03:00Broken Clouds26°C20 mph, E74%10000m1011hPa65%
19-Jun-2024 06:00Scattered Clouds28°C20 mph, E43%10000m1012hPa55%
19-Jun-2024 09:00Clear Sky32°C11 mph, SE8%10000m1011hPa40%
19-Jun-2024 12:00Few Clouds34°C7 mph, SE13%10000m1008hPa31%
19-Jun-2024 15:00Scattered Clouds34°C4 mph, SE41%10000m1007hPa30%
19-Jun-2024 18:00Broken Clouds32°C7 mph, E53%10000m1009hPa35%
19-Jun-2024 21:00Few Clouds31°C18 mph, E13%10000m1010hPa42%
20-Jun-2024 00:00Scattered Clouds28°C18 mph, E28%10000m1009hPa55%
20-Jun-2024 03:00Broken Clouds26°C16 mph, E69%10000m1011hPa65%
20-Jun-2024 06:00Broken Clouds28°C18 mph, E74%10000m1013hPa57%
20-Jun-2024 09:00Broken Clouds32°C9 mph, SE60%10000m1012hPa43%
20-Jun-2024 12:00Broken Clouds33°C7 mph, SE78%10000m1009hPa36%
20-Jun-2024 15:00Overcast Clouds34°C9 mph, SE100%10000m1008hPa34%
20-Jun-2024 18:00Overcast Clouds32°C9 mph, E100%10000m1010hPa39%
20-Jun-2024 21:00Overcast Clouds29°C22 mph, E94%10000m1011hPa49%
21-Jun-2024 00:00Broken Clouds27°C22 mph, E76%10000m1010hPa59%